Detalii statie INDEPENDENTA [00001985]

Toti senzorii

Date Temperatura solului [C]Precipitatii [mm]Voltaj baterie [mV]Leaf Wetness [Min]HC Air temperature [C]HC Relative humidity [%]Punctul de roua [C]
medieminmaxsumaultimatimpmedieminmaxmediemediemin
2019-04-19 19:00:00 0 6922 8.87 8.13 9.7 0 0 0
2019-04-19 20:00:00 0 6884 7.75 7.66 8.02 0 0 0
2019-04-19 21:00:00 0 6884 7.72 7.52 7.92 0 0 0
2019-04-19 22:00:00 0 6874 7.41 6.93 7.74 0 0 0
2019-04-19 23:00:00 0 6854 6.01 5.27 6.86 0 0 0
2019-04-20 00:00:00 0 6834 4.41 4.04 5.06 0 0 0
2019-04-20 01:00:00 0 6826 5.11 4.07 5.54 5.99 0
2019-04-20 02:00:00 0 6776 5.07 4.69 5.5 24.1 -8.9 0
2019-04-20 03:00:00 0 6796 5.28 5.06 5.58 2.25 0
2019-04-20 04:00:00 0 6796 5.58 5.48 5.68 21.54 -5.1 0
2019-04-20 05:00:00 0 6776 5.4 4.98 5.7 11.75 0 0
2019-04-20 06:00:00 0 6816 4.24 3.93 4.73 0 0 0
2019-04-20 07:00:00 0 6922 5.39 4.45 6.35 0 0 0
2019-04-20 08:00:00 0 7000 7.45 6.52 8.57 0 0 0
2019-04-20 09:00:00 0 7050 9.65 8.83 10.61 0 0 0
2019-04-20 10:00:00 0 7080 11.89 10.64 12.92 0 0 0
2019-04-20 11:00:00 0 7128 13.33 12.55 13.76 0 0 0
2019-04-20 12:00:00 0 7246 13.88 13.19 14.62 0 0 0
2019-04-20 13:00:00 0 7284 13.95 12.99 14.95 0 0 0
2019-04-20 14:00:00 0 7284 14.08 13.05 15.32 0 0 0
2019-04-20 15:00:00 0 7284 14.49 14.1 15.39 0 0 0
2019-04-20 16:00:00 0 7050 14.39 13.73 15.85 0 0 0
2019-04-20 17:00:00 0 7040 13.11 12.63 13.75 0 0 0
2019-04-20 18:00:00 0 7020 12.95 12.53 13.38 0 0 0
2019-04-20 19:00:00 0 6932 11.41 9.93 12.41 0 0 0
2019-04-20 20:00:00 0 6874 8.19 5.96 10.34 0 0 0
2019-04-20 21:00:00 0 6854 5.09 4.34 5.79 0 0 0
2019-04-20 22:00:00 0 6834 7.12 5.91 7.83 0 0 0
2019-04-20 23:00:00 0 6844 5.44 3.1 7 0 0 0
2019-04-21 00:00:00 0 6816 2.67 2.42 3.02 0 0 0
2019-04-21 01:00:00 0 6806 2.82 2.05 3.51 0 0 0
2019-04-21 02:00:00 0 6806 3.39 2.94 3.76 0 0 0
2019-04-21 03:00:00 0 6796 3.49 3.05 3.98 0 0 0
2019-04-21 04:00:00 0 6786 4.73 3.84 5.35 0 0 0
2019-04-21 05:00:00 0 6786 4.82 4.41 5.08 0 0 0
2019-04-21 06:00:00 0 6786 5.49 4.98 5.83 0 0 0
2019-04-21 07:00:00 0 6864 6.23 5.73 6.89 0 0 0
2019-04-21 08:00:00 0 6914 7.27 7.05 7.52 0 0 0
2019-04-21 09:00:00 0 7128 8.02 7.26 8.97 0 0 0
2019-04-21 10:00:00 0 7128 10.78 9.11 12.7 0 0 0
2019-04-21 11:00:00 0 7294 13.82 12.9 14.87 0 0 0
2019-04-21 12:00:00 0 7284 14.7 14.13 15.2 0 0 0
2019-04-21 13:00:00 0 7284 15.75 14.94 16.35 0 0 0
2019-04-21 14:00:00 0 7284 16.91 16.39 17.67 0 0 0
2019-04-21 15:00:00 0 7284 17.53 17.11 17.99 0 0 0
2019-04-21 16:00:00 0 7284 17.04 16.47 17.53 0 0 0
2019-04-21 17:00:00 0 7264 16.9 16.41 17.64 0 0 0
2019-04-21 18:00:00 0 7264 15.59 13.82 16.87 0 0 0